sensor_id;sensor_type;location;lat;lon;timestamp;pressure;altitude;pressure_sealevel;temperature;humidity
56825;BME280;42705;50.326;18.772;2023-11-21T00:02:49;97659.59;;;7.50;84.06
56825;BME280;42705;50.326;18.772;2023-11-21T00:08:11;97659.15;;;7.46;84.21
56825;BME280;42705;50.326;18.772;2023-11-21T00:13:33;97655.48;;;7.46;84.29
56825;BME280;42705;50.326;18.772;2023-11-21T00:18:55;97657.67;;;7.41;84.27
56825;BME280;42705;50.326;18.772;2023-11-21T00:24:17;97659.79;;;7.34;84.13
56825;BME280;42705;50.326;18.772;2023-11-21T00:29:40;97659.97;;;7.35;84.66
56825;BME280;42705;50.326;18.772;2023-11-21T00:35:03;97662.41;;;7.38;84.62
56825;BME280;42705;50.326;18.772;2023-11-21T00:40:25;97667.80;;;7.38;84.66
56825;BME280;42705;50.326;18.772;2023-11-21T00:45:47;97670.23;;;7.36;84.83
56825;BME280;42705;50.326;18.772;2023-11-21T00:51:10;97675.86;;;7.41;85.03
56825;BME280;42705;50.326;18.772;2023-11-21T00:56:32;97669.15;;;7.48;85.09
56825;BME280;42705;50.326;18.772;2023-11-21T01:01:57;97672.58;;;7.51;85.41
56825;BME280;42705;50.326;18.772;2023-11-21T01:07:22;97672.48;;;7.54;84.82
56825;BME280;42705;50.326;18.772;2023-11-21T01:12:44;97675.63;;;7.58;84.83
56825;BME280;42705;50.326;18.772;2023-11-21T01:18:06;97678.98;;;7.55;84.65
56825;BME280;42705;50.326;18.772;2023-11-21T01:23:28;97677.80;;;7.55;84.59
56825;BME280;42705;50.326;18.772;2023-11-21T01:28:50;97677.09;;;7.53;84.90
56825;BME280;42705;50.326;18.772;2023-11-21T01:34:12;97679.10;;;7.50;84.36
56825;BME280;42705;50.326;18.772;2023-11-21T01:39:34;97681.34;;;7.46;84.13
56825;BME280;42705;50.326;18.772;2023-11-21T01:44:56;97684.45;;;7.41;84.38
56825;BME280;42705;50.326;18.772;2023-11-21T01:50:18;97683.42;;;7.34;84.01
56825;BME280;42705;50.326;18.772;2023-11-21T01:55:41;97683.59;;;7.31;83.90
56825;BME280;42705;50.326;18.772;2023-11-21T02:01:04;97689.55;;;7.28;84.05
56825;BME280;42705;50.326;18.772;2023-11-21T02:06:27;97695.23;;;7.25;83.77
56825;BME280;42705;50.326;18.772;2023-11-21T02:11:53;97701.02;;;7.20;83.94
56825;BME280;42705;50.326;18.772;2023-11-21T02:17:15;97695.69;;;7.17;83.80
56825;BME280;42705;50.326;18.772;2023-11-21T02:22:40;97695.98;;;7.16;83.86
56825;BME280;42705;50.326;18.772;2023-11-21T02:28:04;97693.44;;;7.14;83.91
56825;BME280;42705;50.326;18.772;2023-11-21T02:33:26;97697.60;;;7.16;83.87
56825;BME280;42705;50.326;18.772;2023-11-21T02:38:48;97697.91;;;7.12;84.01
56825;BME280;42705;50.326;18.772;2023-11-21T02:44:10;97697.14;;;7.09;83.87
56825;BME280;42705;50.326;18.772;2023-11-21T02:49:32;97698.27;;;7.08;83.91
56825;BME280;42705;50.326;18.772;2023-11-21T02:54:56;97699.00;;;7.09;83.87
56825;BME280;42705;50.326;18.772;2023-11-21T03:00:18;97702.58;;;7.08;83.98
56825;BME280;42705;50.326;18.772;2023-11-21T03:05:40;97707.02;;;7.09;83.96
56825;BME280;42705;50.326;18.772;2023-11-21T03:11:02;97710.64;;;7.09;83.86
56825;BME280;42705;50.326;18.772;2023-11-21T03:16:25;97708.23;;;7.07;83.78
56825;BME280;42705;50.326;18.772;2023-11-21T03:21:47;97710.52;;;7.03;83.75
56825;BME280;42705;50.326;18.772;2023-11-21T03:27:09;97710.63;;;7.02;83.97
56825;BME280;42705;50.326;18.772;2023-11-21T03:32:31;97715.51;;;7.03;83.74
56825;BME280;42705;50.326;18.772;2023-11-21T03:37:54;97715.18;;;7.01;83.65
56825;BME280;42705;50.326;18.772;2023-11-21T03:43:17;97724.17;;;7.02;83.60
56825;BME280;42705;50.326;18.772;2023-11-21T03:48:39;97723.23;;;6.99;84.14
56825;BME280;42705;50.326;18.772;2023-11-21T03:54:01;97724.33;;;6.92;84.09
56825;BME280;42705;50.326;18.772;2023-11-21T03:59:23;97724.04;;;6.89;84.05
56825;BME280;42705;50.326;18.772;2023-11-21T04:04:45;97723.30;;;6.90;84.13
56825;BME280;42705;50.326;18.772;2023-11-21T04:10:08;97724.27;;;6.91;84.09
56825;BME280;42705;50.326;18.772;2023-11-21T04:15:31;97734.42;;;6.86;84.42
56825;BME280;42705;50.326;18.772;2023-11-21T04:20:53;97734.10;;;6.87;84.60
56825;BME280;42705;50.326;18.772;2023-11-21T04:26:14;97731.59;;;6.92;84.61
56825;BME280;42705;50.326;18.772;2023-11-21T04:31:36;97742.20;;;6.90;84.50
56825;BME280;42705;50.326;18.772;2023-11-21T04:36:58;97743.81;;;6.88;84.78
56825;BME280;42705;50.326;18.772;2023-11-21T04:42:20;97747.52;;;6.88;84.63
56825;BME280;42705;50.326;18.772;2023-11-21T04:47:42;97747.56;;;6.92;84.65
56825;BME280;42705;50.326;18.772;2023-11-21T04:53:05;97745.61;;;6.92;84.85
56825;BME280;42705;50.326;18.772;2023-11-21T04:58:27;97753.48;;;6.94;84.89
56825;BME280;42705;50.326;18.772;2023-11-21T05:03:49;97759.05;;;6.90;84.85
56825;BME280;42705;50.326;18.772;2023-11-21T05:09:11;97764.40;;;6.82;84.92
56825;BME280;42705;50.326;18.772;2023-11-21T05:14:33;97762.23;;;6.83;84.99
56825;BME280;42705;50.326;18.772;2023-11-21T05:19:55;97761.64;;;6.86;85.06
56825;BME280;42705;50.326;18.772;2023-11-21T05:25:17;97758.34;;;6.82;84.93
56825;BME280;42705;50.326;18.772;2023-11-21T05:30:42;97762.14;;;6.86;85.22
56825;BME280;42705;50.326;18.772;2023-11-21T05:36:04;97767.85;;;6.92;85.34
56825;BME280;42705;50.326;18.772;2023-11-21T05:41:26;97772.89;;;6.94;85.36
56825;BME280;42705;50.326;18.772;2023-11-21T05:46:48;97778.57;;;6.95;85.01
56825;BME280;42705;50.326;18.772;2023-11-21T05:52:10;97786.77;;;6.99;85.21
56825;BME280;42705;50.326;18.772;2023-11-21T05:57:31;97795.21;;;6.99;85.27
56825;BME280;42705;50.326;18.772;2023-11-21T06:02:53;97794.61;;;6.98;85.22
56825;BME280;42705;50.326;18.772;2023-11-21T06:08:15;97801.05;;;6.98;85.18
56825;BME280;42705;50.326;18.772;2023-11-21T06:13:38;97804.80;;;6.93;85.01
56825;BME280;42705;50.326;18.772;2023-11-21T06:19:00;97810.88;;;6.93;85.06
56825;BME280;42705;50.326;18.772;2023-11-21T06:24:22;97817.05;;;6.94;85.19
56825;BME280;42705;50.326;18.772;2023-11-21T06:29:44;97822.30;;;6.89;84.90
56825;BME280;42705;50.326;18.772;2023-11-21T06:35:07;97823.30;;;6.90;84.97
56825;BME280;42705;50.326;18.772;2023-11-21T06:40:30;97828.27;;;6.94;85.44
56825;BME280;42705;50.326;18.772;2023-11-21T06:45:52;97829.12;;;6.93;85.22
56825;BME280;42705;50.326;18.772;2023-11-21T06:51:15;97836.19;;;6.95;85.45
56825;BME280;42705;50.326;18.772;2023-11-21T06:56:36;97841.05;;;7.01;85.57
56825;BME280;42705;50.326;18.772;2023-11-21T07:02:00;97843.11;;;7.02;85.24
56825;BME280;42705;50.326;18.772;2023-11-21T07:07:22;97847.15;;;7.03;85.19
56825;BME280;42705;50.326;18.772;2023-11-21T07:12:44;97852.16;;;7.09;85.11
56825;BME280;42705;50.326;18.772;2023-11-21T07:18:06;97851.48;;;7.09;84.75
56825;BME280;42705;50.326;18.772;2023-11-21T07:23:29;97849.44;;;7.15;84.80
56825;BME280;42705;50.326;18.772;2023-11-21T07:28:51;97844.91;;;7.23;84.70
56825;BME280;42705;50.326;18.772;2023-11-21T07:34:13;97847.73;;;7.27;84.56
56825;BME280;42705;50.326;18.772;2023-11-21T07:39:35;97857.57;;;7.30;84.78
56825;BME280;42705;50.326;18.772;2023-11-21T07:45:05;97860.94;;;7.31;84.29
56825;BME280;42705;50.326;18.772;2023-11-21T07:50:29;97863.67;;;7.25;84.24
56825;BME280;42705;50.326;18.772;2023-11-21T07:55:51;97865.20;;;7.19;84.21
56825;BME280;42705;50.326;18.772;2023-11-21T08:01:13;97867.18;;;7.17;84.14
56825;BME280;42705;50.326;18.772;2023-11-21T08:06:35;97869.48;;;7.06;84.01
56825;BME280;42705;50.326;18.772;2023-11-21T08:11:58;97869.70;;;7.04;83.84
56825;BME280;42705;50.326;18.772;2023-11-21T08:17:22;97873.54;;;7.05;84.14
56825;BME280;42705;50.326;18.772;2023-11-21T08:22:45;97873.67;;;7.05;84.11
56825;BME280;42705;50.326;18.772;2023-11-21T08:28:09;97882.80;;;7.04;84.14
56825;BME280;42705;50.326;18.772;2023-11-21T08:33:31;97890.72;;;7.09;84.14
56825;BME280;42705;50.326;18.772;2023-11-21T08:38:53;97894.34;;;7.10;84.03
56825;BME280;42705;50.326;18.772;2023-11-21T08:44:15;97898.73;;;7.15;84.00
56825;BME280;42705;50.326;18.772;2023-11-21T08:49:38;97895.11;;;7.23;83.85
56825;BME280;42705;50.326;18.772;2023-11-21T08:55:00;97893.50;;;7.30;83.83
56825;BME280;42705;50.326;18.772;2023-11-21T09:00:29;97892.11;;;7.36;83.76
56825;BME280;42705;50.326;18.772;2023-11-21T09:05:51;97891.89;;;7.51;84.09
56825;BME280;42705;50.326;18.772;2023-11-21T09:11:13;97890.62;;;7.65;83.84
56825;BME280;42705;50.326;18.772;2023-11-21T09:16:35;97895.11;;;7.72;83.47
56825;BME280;42705;50.326;18.772;2023-11-21T09:21:57;97892.35;;;7.77;83.20
56825;BME280;42705;50.326;18.772;2023-11-21T09:27:19;97892.27;;;7.90;83.33
56825;BME280;42705;50.326;18.772;2023-11-21T09:32:41;97892.35;;;8.09;83.00
56825;BME280;42705;50.326;18.772;2023-11-21T09:38:06;97886.25;;;8.27;82.56
56825;BME280;42705;50.326;18.772;2023-11-21T09:43:33;97886.59;;;8.21;82.04
56825;BME280;42705;50.326;18.772;2023-11-21T09:48:59;97891.39;;;8.08;81.92
56825;BME280;42705;50.326;18.772;2023-11-21T09:54:23;97891.79;;;8.00;81.76
56825;BME280;42705;50.326;18.772;2023-11-21T09:59:46;97892.22;;;7.93;81.80
56825;BME280;42705;50.326;18.772;2023-11-21T10:05:12;97900.98;;;7.88;81.50
56825;BME280;42705;50.326;18.772;2023-11-21T10:10:35;97903.10;;;7.78;81.44
56825;BME280;42705;50.326;18.772;2023-11-21T10:15:57;97901.11;;;7.68;80.94
56825;BME280;42705;50.326;18.772;2023-11-21T10:21:20;97903.02;;;7.66;80.62
56825;BME280;42705;50.326;18.772;2023-11-21T10:26:42;97903.54;;;7.76;80.53
56825;BME280;42705;50.326;18.772;2023-11-21T10:32:04;97901.25;;;7.87;80.39
56825;BME280;42705;50.326;18.772;2023-11-21T10:37:27;97898.30;;;7.99;79.98
56825;BME280;42705;50.326;18.772;2023-11-21T10:42:49;97895.93;;;8.10;79.81
56825;BME280;42705;50.326;18.772;2023-11-21T10:48:13;97898.66;;;8.26;79.13
56825;BME280;42705;50.326;18.772;2023-11-21T10:53:42;97896.29;;;8.39;79.22
56825;BME280;42705;50.326;18.772;2023-11-21T10:59:04;97894.33;;;8.45;78.73
56825;BME280;42705;50.326;18.772;2023-11-21T11:04:28;97896.98;;;8.55;78.40
56825;BME280;42705;50.326;18.772;2023-11-21T11:09:50;97891.82;;;8.60;77.89
56825;BME280;42705;50.326;18.772;2023-11-21T11:15:13;97889.13;;;8.62;77.95
56825;BME280;42705;50.326;18.772;2023-11-21T11:20:37;97890.66;;;8.55;77.32
56825;BME280;42705;50.326;18.772;2023-11-21T11:38:07;97888.43;;;8.16;77.50
56825;BME280;42705;50.326;18.772;2023-11-21T11:43:29;97889.52;;;8.05;77.45
56825;BME280;42705;50.326;18.772;2023-11-21T11:49:03;97893.05;;;7.95;77.29
56825;BME280;42705;50.326;18.772;2023-11-21T11:54:35;97896.45;;;7.84;77.68
56825;BME280;42705;50.326;18.772;2023-11-21T12:00:20;97904.89;;;7.75;77.45
56825;BME280;42705;50.326;18.772;2023-11-21T12:05:42;97907.83;;;7.71;77.56
56825;BME280;42705;50.326;18.772;2023-11-21T12:11:07;97905.77;;;7.69;77.59
56825;BME280;42705;50.326;18.772;2023-11-21T12:16:32;97906.33;;;7.68;77.57
56825;BME280;42705;50.326;18.772;2023-11-21T12:21:55;97908.11;;;7.70;77.74
56825;BME280;42705;50.326;18.772;2023-11-21T12:27:17;97911.00;;;7.73;77.82
56825;BME280;42705;50.326;18.772;2023-11-21T12:32:40;97909.27;;;7.73;77.99
56825;BME280;42705;50.326;18.772;2023-11-21T12:38:05;97907.45;;;7.77;78.29
56825;BME280;42705;50.326;18.772;2023-11-21T12:43:28;97907.70;;;7.85;78.28
56825;BME280;42705;50.326;18.772;2023-11-21T12:48:51;97910.87;;;7.94;78.39
56825;BME280;42705;50.326;18.772;2023-11-21T12:54:13;97914.88;;;7.92;78.70
56825;BME280;42705;50.326;18.772;2023-11-21T12:59:35;97916.88;;;7.93;78.71
56825;BME280;42705;50.326;18.772;2023-11-21T13:05:00;97919.75;;;7.92;78.79
56825;BME280;42705;50.326;18.772;2023-11-21T13:10:29;97917.20;;;7.87;79.23
56825;BME280;42705;50.326;18.772;2023-11-21T13:15:54;97924.45;;;7.88;79.00
56825;BME280;42705;50.326;18.772;2023-11-21T13:21:18;97924.03;;;7.91;79.17
56825;BME280;42705;50.326;18.772;2023-11-21T13:26:40;97927.66;;;7.83;79.31
56825;BME280;42705;50.326;18.772;2023-11-21T13:32:02;97928.65;;;7.75;79.49
56825;BME280;42705;50.326;18.772;2023-11-21T13:37:27;97931.75;;;7.70;79.73
56825;BME280;42705;50.326;18.772;2023-11-21T13:42:54;97933.31;;;7.64;79.61
56825;BME280;42705;50.326;18.772;2023-11-21T13:48:16;97931.38;;;7.62;80.20
56825;BME280;42705;50.326;18.772;2023-11-21T13:53:47;97934.79;;;7.61;80.36
56825;BME280;42705;50.326;18.772;2023-11-21T13:59:12;97937.20;;;7.53;80.54
56825;BME280;42705;50.326;18.772;2023-11-21T14:04:46;97943.41;;;7.48;80.44
56825;BME280;42705;50.326;18.772;2023-11-21T14:10:09;97946.73;;;7.43;80.67
56825;BME280;42705;50.326;18.772;2023-11-21T14:15:36;97950.45;;;7.36;80.61
56825;BME280;42705;50.326;18.772;2023-11-21T14:21:07;97953.39;;;7.36;80.86
56825;BME280;42705;50.326;18.772;2023-11-21T14:26:32;97960.52;;;7.34;80.93
56825;BME280;42705;50.326;18.772;2023-11-21T14:31:56;97963.70;;;7.28;81.19
56825;BME280;42705;50.326;18.772;2023-11-21T14:37:19;97965.95;;;7.30;81.54
56825;BME280;42705;50.326;18.772;2023-11-21T14:42:42;97972.57;;;7.38;81.88
56825;BME280;42705;50.326;18.772;2023-11-21T14:48:05;97970.25;;;7.51;82.20
56825;BME280;42705;50.326;18.772;2023-11-21T14:53:27;97976.50;;;7.65;82.05
56825;BME280;42705;50.326;18.772;2023-11-21T14:59:15;97982.65;;;7.76;82.26
56825;BME280;42705;50.326;18.772;2023-11-21T15:04:38;97984.08;;;7.82;82.22
56825;BME280;42705;50.326;18.772;2023-11-21T15:10:01;97987.20;;;7.82;81.94
56825;BME280;42705;50.326;18.772;2023-11-21T15:15:23;97985.52;;;7.84;81.87
56825;BME280;42705;50.326;18.772;2023-11-21T15:20:45;97987.05;;;7.84;82.07
56825;BME280;42705;50.326;18.772;2023-11-21T15:26:07;97989.54;;;7.87;82.31
56825;BME280;42705;50.326;18.772;2023-11-21T15:31:31;97993.22;;;7.91;82.12
56825;BME280;42705;50.326;18.772;2023-11-21T15:36:53;97997.69;;;7.88;82.08
56825;BME280;42705;50.326;18.772;2023-11-21T15:42:17;98004.70;;;7.91;82.15
56825;BME280;42705;50.326;18.772;2023-11-21T15:47:39;98018.52;;;7.94;82.36
56825;BME280;42705;50.326;18.772;2023-11-21T15:53:01;98024.02;;;7.97;82.27
56825;BME280;42705;50.326;18.772;2023-11-21T15:58:25;98027.60;;;8.02;82.14
56825;BME280;42705;50.326;18.772;2023-11-21T16:03:50;98036.58;;;7.99;81.74
56825;BME280;42705;50.326;18.772;2023-11-21T16:09:13;98045.34;;;7.93;81.78
56825;BME280;42705;50.326;18.772;2023-11-21T16:14:45;98052.73;;;7.93;81.94
56825;BME280;42705;50.326;18.772;2023-11-21T16:20:09;98055.50;;;7.85;81.66
56825;BME280;42705;50.326;18.772;2023-11-21T16:25:34;98066.00;;;7.73;81.81
56825;BME280;42705;50.326;18.772;2023-11-21T16:30:56;98066.81;;;7.62;81.45
56825;BME280;42705;50.326;18.772;2023-11-21T16:36:19;98075.05;;;7.55;81.19
56825;BME280;42705;50.326;18.772;2023-11-21T16:41:43;98087.48;;;7.47;81.20
56825;BME280;42705;50.326;18.772;2023-11-21T16:47:05;98097.52;;;7.44;81.11
56825;BME280;42705;50.326;18.772;2023-11-21T16:52:27;98099.15;;;7.30;80.97
56825;BME280;42705;50.326;18.772;2023-11-21T16:57:51;98100.95;;;6.99;80.43
56825;BME280;42705;50.326;18.772;2023-11-21T17:03:14;98111.17;;;6.74;80.48
56825;BME280;42705;50.326;18.772;2023-11-21T17:08:36;98123.04;;;6.54;80.16
56825;BME280;42705;50.326;18.772;2023-11-21T17:13:59;98128.53;;;6.34;80.36
56825;BME280;42705;50.326;18.772;2023-11-21T17:19:21;98139.50;;;6.13;80.37
56825;BME280;42705;50.326;18.772;2023-11-21T17:24:43;98147.73;;;6.01;80.44
56825;BME280;42705;50.326;18.772;2023-11-21T17:30:06;98159.27;;;5.86;80.30
56825;BME280;42705;50.326;18.772;2023-11-21T17:35:28;98163.04;;;5.68;80.18
56825;BME280;42705;50.326;18.772;2023-11-21T17:40:50;98170.40;;;5.55;79.90
56825;BME280;42705;50.326;18.772;2023-11-21T17:46:18;98169.16;;;5.41;79.72
56825;BME280;42705;50.326;18.772;2023-11-21T17:51:40;98180.05;;;5.25;79.88
56825;BME280;42705;50.326;18.772;2023-11-21T17:57:03;98191.77;;;5.14;79.41
56825;BME280;42705;50.326;18.772;2023-11-21T18:02:25;98201.70;;;4.98;79.38
56825;BME280;42705;50.326;18.772;2023-11-21T18:07:47;98212.45;;;4.79;79.24
56825;BME280;42705;50.326;18.772;2023-11-21T18:13:09;98214.46;;;4.62;79.20
56825;BME280;42705;50.326;18.772;2023-11-21T18:18:32;98221.06;;;4.54;79.19
56825;BME280;42705;50.326;18.772;2023-11-21T18:23:54;98227.46;;;4.32;78.71
56825;BME280;42705;50.326;18.772;2023-11-21T18:29:16;98237.84;;;4.01;78.54
56825;BME280;42705;50.326;18.772;2023-11-21T18:34:41;98249.45;;;3.79;78.68
56825;BME280;42705;50.326;18.772;2023-11-21T18:40:07;98260.54;;;3.63;78.77
56825;BME280;42705;50.326;18.772;2023-11-21T18:45:30;98269.45;;;3.50;78.81
56825;BME280;42705;50.326;18.772;2023-11-21T18:50:53;98273.96;;;3.39;79.00
56825;BME280;42705;50.326;18.772;2023-11-21T18:56:22;98278.59;;;3.32;78.87
56825;BME280;42705;50.326;18.772;2023-11-21T19:01:45;98281.38;;;3.25;78.90
56825;BME280;42705;50.326;18.772;2023-11-21T19:07:08;98284.33;;;3.06;78.59
56825;BME280;42705;50.326;18.772;2023-11-21T19:12:34;98296.79;;;2.92;78.76
56825;BME280;42705;50.326;18.772;2023-11-21T19:18:02;98306.30;;;2.85;78.61
56825;BME280;42705;50.326;18.772;2023-11-21T19:23:25;98316.34;;;2.80;78.58
56825;BME280;42705;50.326;18.772;2023-11-21T19:28:47;98325.69;;;2.70;78.75
56825;BME280;42705;50.326;18.772;2023-11-21T19:34:11;98336.84;;;2.59;78.68
56825;BME280;42705;50.326;18.772;2023-11-21T19:39:35;98349.53;;;2.55;78.56
56825;BME280;42705;50.326;18.772;2023-11-21T19:44:57;98354.67;;;2.58;78.84
56825;BME280;42705;50.326;18.772;2023-11-21T19:50:20;98366.38;;;2.56;78.71
56825;BME280;42705;50.326;18.772;2023-11-21T19:55:42;98376.20;;;2.56;78.89
56825;BME280;42705;50.326;18.772;2023-11-21T20:01:04;98388.52;;;2.55;78.87
56825;BME280;42705;50.326;18.772;2023-11-21T20:06:26;98402.83;;;2.57;78.84
56825;BME280;42705;50.326;18.772;2023-11-21T20:11:48;98404.80;;;2.59;78.86
56825;BME280;42705;50.326;18.772;2023-11-21T20:17:13;98413.31;;;2.49;78.32
56825;BME280;42705;50.326;18.772;2023-11-21T20:22:50;98425.93;;;2.34;78.28
56825;BME280;42705;50.326;18.772;2023-11-21T20:28:13;98435.91;;;2.22;78.23
56825;BME280;42705;50.326;18.772;2023-11-21T20:33:35;98444.63;;;2.11;78.04
56825;BME280;42705;50.326;18.772;2023-11-21T20:38:58;98453.08;;;1.95;77.71
56825;BME280;42705;50.326;18.772;2023-11-21T20:44:21;98458.27;;;1.82;78.09
56825;BME280;42705;50.326;18.772;2023-11-21T20:49:43;98464.20;;;1.77;78.23
56825;BME280;42705;50.326;18.772;2023-11-21T20:55:06;98473.14;;;1.81;78.34
56825;BME280;42705;50.326;18.772;2023-11-21T21:00:28;98486.75;;;1.90;78.35
56825;BME280;42705;50.326;18.772;2023-11-21T21:05:50;98495.94;;;1.96;78.48
56825;BME280;42705;50.326;18.772;2023-11-21T21:11:17;98503.52;;;1.99;78.42
56825;BME280;42705;50.326;18.772;2023-11-21T21:16:39;98505.23;;;2.05;77.99
56825;BME280;42705;50.326;18.772;2023-11-21T21:22:03;98519.44;;;2.07;77.98
56825;BME280;42705;50.326;18.772;2023-11-21T21:27:25;98531.70;;;2.03;78.08
56825;BME280;42705;50.326;18.772;2023-11-21T21:32:48;98547.06;;;2.00;77.87
56825;BME280;42705;50.326;18.772;2023-11-21T21:38:10;98559.58;;;2.04;77.76
56825;BME280;42705;50.326;18.772;2023-11-21T21:43:34;98566.56;;;2.05;77.53
56825;BME280;42705;50.326;18.772;2023-11-21T21:48:57;98577.15;;;2.07;77.75
56825;BME280;42705;50.326;18.772;2023-11-21T21:54:20;98579.43;;;2.07;77.70
56825;BME280;42705;50.326;18.772;2023-11-21T21:59:43;98585.41;;;1.98;77.41
56825;BME280;42705;50.326;18.772;2023-11-21T22:05:11;98591.06;;;1.92;77.36
56825;BME280;42705;50.326;18.772;2023-11-21T22:10:34;98594.09;;;1.87;77.29
56825;BME280;42705;50.326;18.772;2023-11-21T22:15:57;98598.26;;;1.76;77.48
56825;BME280;42705;50.326;18.772;2023-11-21T22:21:20;98602.34;;;1.64;77.36
56825;BME280;42705;50.326;18.772;2023-11-21T22:26:43;98604.17;;;1.61;77.48
56825;BME280;42705;50.326;18.772;2023-11-21T22:32:05;98604.05;;;1.50;77.25
56825;BME280;42705;50.326;18.772;2023-11-21T22:37:27;98609.66;;;1.34;77.36
56825;BME280;42705;50.326;18.772;2023-11-21T22:42:49;98614.71;;;1.20;77.31
56825;BME280;42705;50.326;18.772;2023-11-21T22:48:11;98627.39;;;1.10;77.23
56825;BME280;42705;50.326;18.772;2023-11-21T22:53:34;98632.50;;;1.08;77.40
56825;BME280;42705;50.326;18.772;2023-11-21T22:58:56;98636.04;;;1.02;77.60
56825;BME280;42705;50.326;18.772;2023-11-21T23:04:18;98639.20;;;0.93;77.28
56825;BME280;42705;50.326;18.772;2023-11-21T23:09:42;98646.36;;;0.88;77.39
56825;BME280;42705;50.326;18.772;2023-11-21T23:15:05;98661.30;;;0.88;77.55
56825;BME280;42705;50.326;18.772;2023-11-21T23:20:28;98665.83;;;0.87;77.43
56825;BME280;42705;50.326;18.772;2023-11-21T23:25:51;98676.42;;;0.92;77.48
56825;BME280;42705;50.326;18.772;2023-11-21T23:31:13;98681.00;;;1.01;77.73
56825;BME280;42705;50.326;18.772;2023-11-21T23:36:36;98692.20;;;1.08;77.61
56825;BME280;42705;50.326;18.772;2023-11-21T23:41:57;98696.70;;;1.07;77.36
56825;BME280;42705;50.326;18.772;2023-11-21T23:47:19;98701.41;;;0.98;77.23
56825;BME280;42705;50.326;18.772;2023-11-21T23:52:41;98706.55;;;0.92;77.16
56825;BME280;42705;50.326;18.772;2023-11-21T23:58:03;98717.94;;;0.87;77.32
